Main page
METAR-TAF:

METAR-TAF

Airports :

Southampton Airport

Southampton, England

latitude: 50-54N, longitude: 001-24W, elevation: 9 m

Current weather observation

The report was made 19 minutes ago, at 13:50 UTC
Wind 5 kt from the South, varying between East/Southeast and Southwest
Temperature 16°C
Humidity 82%
Pressure 1014 hPa
Visibility 10 km or more
Few clouds at a height of 1500 ft
Scattered clouds at a height of 4200 ft

METAR: EGHI 161350Z 18005KT 110V230 9999 FEW015 SCT042 16/13 Q1014

Time: 15:09 (14:09 UTC)

Forecast

The report was made 3 hours and 7 minutes ago, at 11:02 UTC
Forecast valid from 16 at 11 UTC to 16 at 18 UTC
Wind 9 kt from the West/Northwest
Visibility: 8000 m
Scattered clouds at a height of 3000 ft
light rain
Becoming
from 16 at 11 UTC to 16 at 14 UTC
Visibility 10 km or more

TAF: EGHI 161102Z 1611/1618 29009KT 8000 -RA SCT030 BECMG 1611/1614 9999 NSW

Weather observations and forecasts of more than 4000 airports (METAR and TAF reports).

The available stations are represented by yellow and red dots on the map.

Hover mouse over dot to see the name of the station.

Then click to see weather observations and forecasts.

To change the map : click on the green buttons with a black cross to zoom in, on the green button with a dash to zoom out, or on the green arrows for adjacent maps.


METAR-TAF: